LECO/LCG METAR and TAF weather

Enter ICAO airport designator
Station Type Date Time Source
LECO METAR 2021/08/05 03:30 UTC NOAA

LECO 050330Z 20010KT 170V230 9999 SCT048 18/15 Q1017 NOSIG


Station Type Date Time Source
LECO Decoded METAR 2021/08/05 03:30 UTC NOAA

La Coruna / Alvedro, Spain (LECO) 43-18N 008-23W 103M
Aug 04, 2021 - 11:30 PM EDT / 2021.08.05 0330 UTC
Wind: from the SSW (200 degrees) at 12 MPH (10 KT) (direction variable):0
Visibility: greater than 7 mile(s):0
Sky conditions: partly cloudy
Temperature: 64 F (18 C)
Dew Point: 59 F (15 C)
Relative Humidity: 82%
Pressure (altimeter): 30.03 in. Hg (1017 hPa)
ob: LECO 050330Z 20010KT 170V230 9999 SCT048 18/15 Q1017 NOSIG
cycle: 3

Station Type Date Time Source
LECO TAF 2021/08/05 03:32 UTC NOAA

TAF LECO 050200Z 0503/0603 VRB03KT 9999 BKN020 TX21/0512Z TN14/0505Z PROB40
TEMPO 0503/0515 3000 -RADZ BR BKN005 BKN010
BECMG 0503/0506 20010KT PROB30
TEMPO 0506/0512 0350 FG VV001 PROB40
TEMPO 0512/0518 29010KT

Example: see airport list